St Anicet

CWBZ · Quebec, 加拿大

使用的METAR站距离机场26 NM。
罗盘
风向 的 风向 170°
风: 6 kt, 2 beaufort

添加一条跑道以查看侧风和逆风信息。

添置 跑道
0 ft 1.000 2.000 3.000 4.000 5.000
Cloud Cloud Cloud Cloud Cloud Cloud Cloud Cloud
OVC 1.800
METAR KMSS 182353Z AUTO 17006KT 10SM -RA OVC018 09/08 A3007 RMK AO2 SLP186 P0003 60010 T00890078 10094 20089 50010

METAR St Anicet - CWBZ

St Anicet是,加拿大中的未知。 该机场位于纬度45,11667和经度-74,28333。 本场的ICAO机场代码为CWBZ。 机场在Boston FIR中。

该航空气象观测是针对Massena International-Richards Field在2024年4月18日 19:53, 当地时间进行的。

机场观察

风向为170°,速度为6 kt。

可见度为10 mi。

有乌云密布在1.800 ft的高度。 破损或更高的上限为1.800 ft。

当前天气为光 雨。 温度为9 °C,阵风为6 °C。 露点为8 °C,相对湿度为94%。 海平面上的气压为30,07 inHg (QNH)。

白天

今天,太阳从06:03升起,在19:48降落。 这适用于St Anicet,世界夏令时可能有所不同。 当地时间与世界标准时间之间的时差为-4 小时。 夏令时目前正在进行中。

公司介绍

我们没有关于这个机场的公司信息。

体会

到Vliegles.nl去找飞行课程,跳伞和其他飞行体验。 浏览页面,了解St Anicet附近所有可用的活动。 你也可以使用搜索功能来寻找你所在地附近的特定飞行课程、跳伞或其他飞行体验。

乌云

1.800 ft OVC 乌云密布

温度 & 天气

天气 光 雨
温度 8,9 °C
露点 7,8 °C
相对湿度 94%
风寒 6 °C
Kp-index 0 (0-9)

评论

AO2自动气象站,可确定降水类型
SLP186海平面压力为30,08 inHg (30,08 inHg)
P0003自上次观测以来,降雨量的水当量为0,03 inch (0,0 mm)。
60010过去6小时内的降雨水当量为0,06 inch (0,0 mm)。
T00890078温度为8,9 °C (48,0 °F),露点为7,8 °C (46,0 °F)
10094 20089 50010

白天

日出
06:08 (9:57)
中午
12:58
日落
19:49

小工具

你想在你的网站上有一个关于St Anicet的当前航空天气(METAR)的小部件吗?

显示HTML代码
报告变更